KFPR/FPR METAR and TAF weather

Enter ICAO airport designator
Station Type Date Time Source
KFPR METAR 2019/08/18 18:53 UTC NOAA

KFPR 181853Z AUTO 11012KT 10SM BKN075 31/24 A3009 RMK AO2 LTG DSNT S RAE1756 SLP189 P0000 T03110239


Station Type Date Time Source
KFPR Decoded METAR 2019/08/18 18:53 UTC NOAA

Station name not available
Aug 18, 2019 - 02:53 PM EDT / 2019.08.18 1853 UTC
Wind: from the ESE (110 degrees) at 14 MPH (12 KT):0
Visibility: 10 mile(s):0
Sky conditions: mostly cloudy
Weather: Lightning observed
Precipitation last hour: A trace
Temperature: 88.0 F (31.1 C)
Heat index: 97.5 F (36.4 C):1
Dew Point: 75.0 F (23.9 C)
Relative Humidity: 65%
Pressure (altimeter): 30.09 in. Hg (1018 hPa)
ob: KFPR 181853Z AUTO 11012KT 10SM BKN075 31/24 A3009 RMK AO2 LTG DSNT S RAE1756 SLP189 P0000 T03110239
cycle: 19

Station Type Date Time Source
KFPR TAF 2019/08/18 18:24 UTC NOAA

TAF KFPR 181722Z 1818/1918 12011KT P6SM VCTS SCT030CB SCT040 BKN150
FM181900 12010KT P6SM FEW030 SCT250
FM190100 VRB03KT P6SM FEW030 SCT050 SCT250
FM191500 11008KT P6SM FEW030 BKN250

Example: see airport list